createdAt,value
2023-05-22T00:01:20.137Z,83.3093
2023-05-22T00:02:22.415Z,83.6793
2023-05-22T00:03:23.580Z,83.9719
2023-05-22T00:04:25.561Z,83.9561
2023-05-22T00:05:27.620Z,84.2135
2023-05-22T00:19:44.210Z,87.1486
2023-05-22T00:20:45.413Z,86.7893
2023-05-22T00:21:47.657Z,87.5755
2023-05-22T00:22:48.903Z,88.5212
2023-05-22T00:23:50.509Z,89.0866
2023-05-22T00:24:51.736Z,89.5522
2023-05-22T00:25:52.660Z,89.7559
2023-05-22T00:26:54.574Z,90.1997
2023-05-22T00:28:07.665Z,90.8467
2023-05-22T00:30:28.721Z,91.7286
2023-05-22T00:31:31.555Z,91.9727
2023-05-22T00:32:32.416Z,91.4123
2023-05-22T00:39:42.846Z,93.0708
2023-05-22T00:40:44.611Z,92.9084
2023-05-22T00:50:31.845Z,92.6221
2023-05-22T00:51:36.505Z,91.9749
2023-05-22T00:58:42.158Z,89.5598
2023-05-22T00:59:44.313Z,88.9639
2023-05-22T01:00:44.909Z,89.1161
2023-05-22T01:01:47.070Z,89.0406
2023-05-22T01:09:25.235Z,87.9358
2023-05-22T01:10:25.970Z,88.4258
2023-05-22T01:11:27.741Z,87.5360
2023-05-22T01:12:29.117Z,87.8253
2023-05-22T01:13:30.333Z,88.0588
2023-05-22T01:19:07.895Z,87.9499
2023-05-22T01:20:08.907Z,87.9798
2023-05-22T01:21:09.290Z,88.1348
2023-05-22T01:22:10.505Z,89.5615
2023-05-22T01:23:10.803Z,89.3337
2023-05-22T01:24:13.035Z,89.2112
2023-05-22T01:25:14.518Z,88.5891
2023-05-22T01:26:16.043Z,89.9218
2023-05-22T01:27:17.199Z,90.3340
2023-05-22T01:28:19.284Z,87.8931
2023-05-22T01:29:20.539Z,88.0992
2023-05-22T01:30:21.949Z,90.7353
2023-05-22T01:31:22.224Z,89.7221
2023-05-22T01:32:23.284Z,89.1829
2023-05-22T01:33:25.220Z,90.5629
2023-05-22T01:34:27.088Z,91.0793
2023-05-22T01:35:29.226Z,89.9507
2023-05-22T01:37:32.328Z,87.9668
2023-05-22T01:38:34.034Z,90.3570
2023-05-22T01:39:35.284Z,88.9199
2023-05-22T01:40:37.013Z,88.2819
2023-05-22T01:41:38.736Z,90.7803
2023-05-22T01:42:40.572Z,91.6972
2023-05-22T01:43:41.351Z,92.7542
2023-05-22T01:45:42.354Z,91.4101
2023-05-22T01:47:42.525Z,91.4499
2023-05-22T01:48:45.139Z,91.4442
2023-05-22T01:49:46.592Z,90.8468
2023-05-22T01:51:49.809Z,88.9560
2023-05-22T01:52:51.690Z,89.2475
2023-05-22T01:54:55.561Z,92.0750
2023-05-22T02:15:14.839Z,94.7030
2023-05-22T02:17:16.794Z,94.0574
2023-05-22T02:21:23.825Z,89.6635
2023-05-22T02:22:24.847Z,91.7667
2023-05-22T02:23:26.286Z,93.1308
2023-05-22T02:24:27.034Z,93.3789
2023-05-22T02:25:29.133Z,93.0844
2023-05-22T02:26:31.350Z,92.8326
2023-05-22T02:27:32.381Z,93.4860
2023-05-22T02:29:35.535Z,94.4741
2023-05-22T02:30:37.448Z,95.2010
2023-05-22T02:32:39.707Z,93.0713
2023-05-22T02:33:41.147Z,91.3479
2023-05-22T02:34:42.928Z,92.9870
2023-05-22T02:37:47.447Z,93.1882
2023-05-22T02:39:49.938Z,92.9655
2023-05-22T02:41:51.989Z,95.3273
2023-05-22T02:43:53.976Z,95.8547
2023-05-22T02:44:55.623Z,93.9097
2023-05-22T02:45:57.691Z,94.1602
2023-05-22T02:47:00.435Z,92.4737
2023-05-22T02:48:00.582Z,93.3123
2023-05-22T02:49:01.888Z,93.0213
2023-05-22T02:50:02.336Z,94.3036
2023-05-22T02:51:02.429Z,93.7547
2023-05-22T02:52:05.830Z,93.4750
2023-05-22T02:53:05.847Z,90.6573
2023-05-22T02:54:07.462Z,90.9036
2023-05-22T02:55:09.151Z,92.3259
2023-05-22T02:56:09.322Z,91.5161
2023-05-22T02:57:10.463Z,91.6212
2023-05-22T02:58:25.802Z,92.7525
2023-05-22T03:00:44.295Z,94.3370
2023-05-22T03:01:46.432Z,94.7160
2023-05-22T03:02:46.261Z,95.6573
2023-05-22T03:04:50.473Z,95.0157
2023-05-22T03:05:51.166Z,91.8065
2023-05-22T03:06:52.473Z,90.8021
2023-05-22T03:07:53.855Z,92.1354
2023-05-22T03:11:55.490Z,94.3917
2023-05-22T03:12:55.568Z,95.4840
2023-05-22T03:13:57.762Z,96.2863
2023-05-22T03:14:59.213Z,95.8053
2023-05-22T03:16:00.710Z,96.5826
2023-05-22T03:18:03.881Z,96.7154
2023-05-22T03:19:05.649Z,96.7141
2023-05-22T03:25:11.072Z,95.1069
2023-05-22T03:26:12.983Z,95.8108
2023-05-22T03:27:14.099Z,93.7196
2023-05-22T03:28:16.284Z,94.5162
2023-05-22T03:29:16.609Z,96.1049
2023-05-22T03:30:16.824Z,96.6707
2023-05-22T03:32:20.596Z,96.5789
2023-05-22T03:33:21.264Z,96.8113
2023-05-22T03:34:21.448Z,96.9876
2023-05-22T03:37:24.066Z,97.7778
2023-05-22T03:38:26.002Z,96.7899
2023-05-22T03:39:27.142Z,96.1440
2023-05-22T03:40:28.531Z,95.6969
2023-05-22T03:41:28.961Z,95.6116
2023-05-22T03:42:30.637Z,95.4694
2023-05-22T03:44:32.395Z,96.6237
2023-05-22T03:45:38.990Z,97.0410
2023-05-22T03:52:41.529Z,97.1460
2023-05-22T03:53:42.955Z,96.5919
2023-05-22T03:54:44.613Z,96.1498
2023-05-22T03:55:46.552Z,96.0353
2023-05-22T03:56:49.129Z,95.9277
2023-05-22T04:05:58.460Z,92.1053
2023-05-22T04:10:02.488Z,95.5806
2023-05-22T04:11:02.831Z,96.3600
2023-05-22T04:12:04.069Z,96.5773
2023-05-22T04:13:04.542Z,96.2147
2023-05-22T04:14:07.854Z,96.6692
2023-05-22T04:15:09.263Z,96.1308
2023-05-22T04:16:10.033Z,95.0850
2023-05-22T04:17:12.286Z,95.4003
2023-05-22T04:18:12.728Z,95.1887
2023-05-22T04:19:13.080Z,94.9714
2023-05-22T04:20:15.656Z,95.3882
2023-05-22T04:21:16.630Z,93.8393
2023-05-22T04:22:18.207Z,93.2749
2023-05-22T04:23:20.538Z,92.6088
2023-05-22T04:24:21.393Z,93.1804
2023-05-22T04:25:24.135Z,93.1446
2023-05-22T04:26:24.002Z,93.0123
2023-05-22T04:41:44.654Z,93.1505
2023-05-22T04:42:46.474Z,94.2603
2023-05-22T04:43:48.450Z,95.1433
2023-05-22T04:44:49.563Z,95.5023
2023-05-22T04:45:51.982Z,95.8693
2023-05-22T04:56:04.229Z,95.1571
2023-05-22T04:57:06.397Z,94.9080
2023-05-22T05:03:14.908Z,94.0449
2023-05-22T05:07:19.280Z,92.1056
2023-05-22T05:08:21.285Z,92.3819
2023-05-22T05:24:40.337Z,83.9572
2023-05-22T05:25:42.226Z,85.6198
2023-05-22T05:26:43.385Z,83.0821
2023-05-22T05:27:44.683Z,85.5624
2023-05-22T05:28:46.415Z,84.4585
2023-05-22T05:29:46.876Z,86.0258
2023-05-22T05:31:50.257Z,83.6664
2023-05-22T05:32:50.179Z,85.7386
2023-05-22T05:42:01.172Z,82.5635
2023-05-22T05:43:02.120Z,82.5914
2023-05-22T05:51:09.566Z,76.6843
2023-05-22T05:52:11.082Z,75.1776
2023-05-22T06:01:22.635Z,74.4638
2023-05-22T06:02:24.326Z,75.4982
2023-05-22T06:03:28.488Z,75.9526
2023-05-22T06:11:35.066Z,75.8180
2023-05-22T06:12:36.493Z,76.6311
2023-05-22T06:13:38.214Z,77.0759
2023-05-22T06:14:39.746Z,75.7994
2023-05-22T06:15:41.683Z,76.6946
2023-05-22T06:16:44.627Z,77.7176
2023-05-22T06:17:44.616Z,76.0062
2023-05-22T06:18:44.725Z,76.7589
2023-05-22T06:19:46.253Z,76.7095
2023-05-22T06:20:47.469Z,75.1708
2023-05-22T06:21:53.000Z,76.4379
2023-05-22T06:22:50.897Z,76.1314
2023-05-22T06:23:52.857Z,76.2008
2023-05-22T06:24:54.096Z,74.0255
2023-05-22T06:26:57.498Z,73.0386
2023-05-22T06:27:59.712Z,73.7633
2023-05-22T06:29:03.226Z,73.3697
2023-05-22T06:36:08.588Z,73.4433
2023-05-22T06:37:10.584Z,73.3052
2023-05-22T06:38:11.810Z,73.1630
2023-05-22T06:39:11.986Z,73.2147
2023-05-22T06:44:46.891Z,72.0321
2023-05-22T06:45:49.146Z,72.7432
2023-05-22T06:52:55.260Z,70.9346
2023-05-22T07:05:09.571Z,71.7565
2023-05-22T07:06:11.976Z,71.0951
2023-05-22T07:07:14.400Z,69.7370
2023-05-22T07:31:45.546Z,66.2778
2023-05-22T07:32:45.655Z,66.5948
2023-05-22T07:33:46.707Z,67.5467
2023-05-22T07:34:48.287Z,65.9916
2023-05-22T07:35:49.668Z,66.3532
2023-05-22T07:36:50.697Z,66.2134
2023-05-22T07:39:54.491Z,67.0577
2023-05-22T07:40:56.576Z,66.0984
2023-05-22T07:42:01.536Z,67.0915
2023-05-22T07:48:03.157Z,65.8781
2023-05-22T07:49:03.869Z,66.6838
2023-05-22T07:50:04.656Z,65.2961
2023-05-22T07:51:06.096Z,64.9147
2023-05-22T07:52:07.886Z,64.9971
2023-05-22T07:53:08.502Z,65.4158
2023-05-22T07:54:09.890Z,65.4583
2023-05-22T07:55:09.893Z,66.2645
2023-05-22T07:56:11.804Z,67.1789
2023-05-22T07:57:13.887Z,66.5508
2023-05-22T07:58:16.783Z,66.4596
2023-05-22T07:59:17.774Z,65.8709
2023-05-22T08:00:19.913Z,64.1617
2023-05-22T08:01:20.496Z,63.3934
2023-05-22T08:04:24.371Z,62.8401
2023-05-22T08:05:25.170Z,62.1779
2023-05-22T08:06:25.570Z,62.2279
2023-05-22T08:07:27.567Z,64.5361
2023-05-22T08:08:32.250Z,62.9164
2023-05-22T08:29:30.828Z,58.5238
2023-05-22T08:30:31.084Z,57.8578
2023-05-22T08:31:32.635Z,58.9179
2023-05-22T08:32:32.894Z,59.0140
2023-05-22T08:33:34.291Z,58.5916
2023-05-22T08:34:35.662Z,57.7337
2023-05-22T08:35:37.387Z,56.1972
2023-05-22T08:36:38.957Z,57.5055
2023-05-22T08:37:40.283Z,57.0158
2023-05-22T08:38:42.041Z,56.9968
2023-05-22T08:39:43.546Z,55.3828
2023-05-22T08:40:47.082Z,56.7938
2023-05-22T08:42:48.575Z,57.0378
2023-05-22T08:43:50.448Z,57.1190
2023-05-22T08:44:51.959Z,55.9224
2023-05-22T08:45:53.526Z,56.3653
2023-05-22T08:46:55.233Z,55.2792
2023-05-22T08:47:57.226Z,54.8805
2023-05-22T08:48:59.258Z,56.5170
2023-05-22T08:50:00.034Z,55.8792
2023-05-22T08:51:00.329Z,56.3374
2023-05-22T08:52:01.777Z,54.4126
2023-05-22T08:53:02.906Z,55.4866
2023-05-22T08:54:03.106Z,53.6367
2023-05-22T08:55:04.574Z,52.8172
2023-05-22T08:56:06.429Z,52.8710
2023-05-22T08:57:08.018Z,54.1070
2023-05-22T08:58:08.669Z,54.7894
2023-05-22T08:59:10.004Z,53.5340
2023-05-22T09:00:10.436Z,53.6914
2023-05-22T09:01:12.334Z,52.0206
2023-05-22T09:02:14.154Z,52.8444
2023-05-22T09:03:15.670Z,53.5948
2023-05-22T09:04:17.558Z,53.7286
2023-05-22T09:05:19.403Z,54.8220
2023-05-22T09:06:21.227Z,55.2821
2023-05-22T09:07:23.020Z,56.7664
2023-05-22T09:08:25.084Z,54.0515
2023-05-22T09:09:26.616Z,55.4128
2023-05-22T09:10:27.077Z,57.2202
2023-05-22T09:11:28.892Z,57.5912
2023-05-22T09:12:30.229Z,55.3681
2023-05-22T09:13:32.077Z,54.8491
2023-05-22T09:14:33.513Z,52.5870
2023-05-22T09:15:35.091Z,53.4676
2023-05-22T09:16:35.824Z,54.7763
2023-05-22T09:20:42.356Z,52.9535
2023-05-22T09:21:42.870Z,55.0181
2023-05-22T09:22:43.733Z,55.0065
2023-05-22T09:23:45.551Z,56.3082
2023-05-22T09:24:47.274Z,56.8833
2023-05-22T09:25:49.244Z,54.4062
2023-05-22T09:26:51.280Z,54.0789
2023-05-22T09:27:52.876Z,55.7383
2023-05-22T09:28:54.278Z,52.8459
2023-05-22T09:30:56.585Z,53.2489
2023-05-22T09:31:56.918Z,53.5023
2023-05-22T09:32:58.937Z,54.6248
2023-05-22T09:33:59.332Z,50.8391
2023-05-22T09:35:01.124Z,51.0671
2023-05-22T09:36:02.129Z,52.1727
2023-05-22T09:37:03.998Z,51.4839
2023-05-22T09:38:05.025Z,53.5877
2023-05-22T09:42:11.409Z,51.3942
2023-05-22T09:43:11.658Z,51.5344
2023-05-22T09:44:12.781Z,51.8709
2023-05-22T09:45:14.139Z,51.4650
2023-05-22T09:46:15.182Z,52.9097
2023-05-22T09:47:17.207Z,51.5827
2023-05-22T09:48:17.392Z,54.6309
2023-05-22T09:49:19.550Z,52.3426
2023-05-22T09:52:23.725Z,52.6814
2023-05-22T09:54:27.302Z,49.0732
2023-05-22T09:55:27.488Z,51.8571
2023-05-22T09:57:29.774Z,52.2990
2023-05-22T09:58:31.492Z,51.5523
2023-05-22T09:59:33.033Z,51.0702
2023-05-22T10:00:34.726Z,52.7833
2023-05-22T10:01:35.264Z,51.3024
2023-05-22T10:02:35.951Z,50.4855
2023-05-22T10:03:37.702Z,48.6098
2023-05-22T10:04:39.775Z,50.4299
2023-05-22T10:05:40.082Z,50.9432
2023-05-22T10:08:44.310Z,50.1933
2023-05-22T10:09:46.345Z,48.0205
2023-05-22T10:10:47.624Z,48.2115
2023-05-22T10:11:49.484Z,50.1698
2023-05-22T10:12:51.361Z,50.3650
2023-05-22T10:13:53.572Z,52.4599
2023-05-22T10:14:54.536Z,51.8034
2023-05-22T10:15:56.426Z,52.4728
2023-05-22T10:16:58.095Z,52.5938
2023-05-22T10:17:59.716Z,52.0808
2023-05-22T10:20:01.173Z,50.8814
2023-05-22T10:21:02.399Z,48.5393
2023-05-22T10:22:02.654Z,48.6530
2023-05-22T10:23:04.314Z,48.0468
2023-05-22T10:24:05.137Z,47.7582
2023-05-22T10:25:10.850Z,48.3511
2023-05-22T10:37:22.778Z,48.3644
2023-05-22T10:38:24.374Z,47.1507
2023-05-22T10:39:24.840Z,48.0238
2023-05-22T10:40:27.450Z,43.9266
2023-05-22T10:41:28.858Z,45.4179
2023-05-22T10:42:30.572Z,47.4403
2023-05-22T10:43:30.639Z,49.2448
2023-05-22T10:44:31.094Z,47.2624
2023-05-22T10:45:32.846Z,47.4325
2023-05-22T10:46:32.830Z,48.4658
2023-05-22T10:47:33.366Z,47.4602
2023-05-22T10:48:34.218Z,46.7728
2023-05-22T10:50:37.113Z,48.6050
2023-05-22T10:51:38.734Z,47.0326
2023-05-22T10:52:40.138Z,46.3293
2023-05-22T10:53:41.883Z,46.8939
2023-05-22T10:56:46.692Z,45.4832
2023-05-22T10:57:48.345Z,48.7574
2023-05-22T10:58:50.163Z,48.2033
2023-05-22T10:59:51.681Z,45.1595
2023-05-22T11:00:53.345Z,44.6887
2023-05-22T11:01:54.300Z,45.4503
2023-05-22T11:12:04.777Z,50.4704
2023-05-22T11:13:05.734Z,50.5092
2023-05-22T11:14:07.655Z,50.1651
2023-05-22T11:15:08.535Z,48.1176
2023-05-22T11:16:09.912Z,44.9364
2023-05-22T11:17:12.860Z,46.0001
2023-05-22T11:21:13.845Z,48.8242
2023-05-22T11:37:32.515Z,47.5224
2023-05-22T11:38:34.176Z,46.6067
2023-05-22T11:39:34.670Z,47.0613
2023-05-22T11:41:36.045Z,47.5321
2023-05-22T11:42:36.385Z,47.6103
2023-05-22T11:43:37.468Z,48.7826
2023-05-22T11:44:39.551Z,48.2703
2023-05-22T11:45:40.592Z,46.8369
2023-05-22T11:46:41.971Z,49.3642
2023-05-22T11:47:43.810Z,45.9466
2023-05-22T11:48:45.837Z,46.9547
2023-05-22T11:49:46.146Z,46.3036
2023-05-22T11:50:48.293Z,44.4699
2023-05-22T11:51:48.888Z,46.0989
2023-05-22T11:52:49.813Z,46.7450
2023-05-22T11:54:51.912Z,45.4333
2023-05-22T11:55:53.032Z,46.7619
2023-05-22T11:56:54.725Z,45.0348
2023-05-22T11:57:56.228Z,47.5063
2023-05-22T11:58:56.428Z,46.1884
2023-05-22T11:59:57.204Z,47.7609
2023-05-22T12:00:57.269Z,46.1435
2023-05-22T12:01:58.289Z,49.2839
2023-05-22T12:03:00.080Z,47.5616
2023-05-22T12:04:00.454Z,46.7045
2023-05-22T12:05:01.554Z,45.9893
2023-05-22T12:06:03.467Z,46.2780
2023-05-22T12:07:04.432Z,47.4236
2023-05-22T12:08:05.041Z,44.7715
2023-05-22T12:11:10.580Z,44.6054
2023-05-22T12:12:11.202Z,43.0163
2023-05-22T12:13:11.241Z,43.8527
2023-05-22T12:15:13.934Z,44.3496
2023-05-22T12:16:14.584Z,47.3608
2023-05-22T12:18:15.068Z,44.7059
2023-05-22T12:19:16.329Z,45.1982
2023-05-22T12:20:18.215Z,43.1248
2023-05-22T12:21:18.794Z,44.1502
2023-05-22T12:22:22.586Z,43.5306
2023-05-22T12:23:20.700Z,41.9785
2023-05-22T12:24:21.542Z,47.3051
2023-05-22T12:25:21.565Z,45.1120
2023-05-22T12:26:23.735Z,44.5327
2023-05-22T12:27:24.898Z,41.7168
2023-05-22T12:28:26.906Z,44.6481
2023-05-22T12:29:28.814Z,41.8066
2023-05-22T12:30:30.719Z,41.6237
2023-05-22T12:31:32.820Z,42.4841
2023-05-22T12:32:33.066Z,43.1438
2023-05-22T12:33:35.088Z,41.4756
2023-05-22T12:34:36.691Z,43.1730
2023-05-22T12:35:38.295Z,41.9321
2023-05-22T12:36:38.538Z,41.8772
2023-05-22T12:37:40.643Z,42.6214
2023-05-22T12:38:41.172Z,44.9330
2023-05-22T12:39:42.142Z,45.8734
2023-05-22T12:40:43.909Z,44.2295
2023-05-22T12:41:44.500Z,40.7728
2023-05-22T12:42:45.570Z,40.6229
2023-05-22T12:47:53.692Z,44.9253
2023-05-22T12:48:55.442Z,45.2629
2023-05-22T12:49:56.815Z,44.9699
2023-05-22T12:50:57.263Z,47.3097
2023-05-22T12:51:57.920Z,47.0678
2023-05-22T12:52:58.053Z,47.1279
2023-05-22T12:53:59.186Z,46.9544
2023-05-22T12:55:00.590Z,43.3495
2023-05-22T12:56:00.908Z,44.3495
2023-05-22T12:57:02.944Z,40.3423
2023-05-22T12:58:02.977Z,41.4958
2023-05-22T13:00:05.312Z,42.3711
2023-05-22T13:01:06.778Z,43.7415
2023-05-22T13:02:08.184Z,43.8870
2023-05-22T13:03:09.897Z,41.2062
2023-05-22T13:04:11.275Z,39.0019
2023-05-22T13:05:11.803Z,41.3809
2023-05-22T13:06:13.380Z,41.5043
2023-05-22T13:07:14.397Z,42.2952
2023-05-22T13:08:14.601Z,41.6724
2023-05-22T13:09:15.081Z,43.0004
2023-05-22T13:10:16.408Z,42.0349
2023-05-22T13:11:17.576Z,40.2675
2023-05-22T13:12:18.031Z,41.3859
2023-05-22T13:13:19.002Z,42.4694
2023-05-22T13:14:20.761Z,41.9052
2023-05-22T13:15:22.356Z,40.3205
2023-05-22T13:16:23.129Z,42.0109
2023-05-22T13:18:25.340Z,41.0040
2023-05-22T13:19:27.574Z,38.7320
2023-05-22T13:20:28.141Z,41.4161
2023-05-22T13:21:29.545Z,39.5622
2023-05-22T13:22:30.149Z,40.5536
2023-05-22T13:23:30.196Z,43.0435
2023-05-22T13:24:30.518Z,40.8739
2023-05-22T13:25:31.194Z,41.7504
2023-05-22T13:26:31.408Z,41.3823
2023-05-22T13:27:34.314Z,41.3485
2023-05-22T13:34:41.230Z,43.9800
2023-05-22T13:37:45.673Z,43.2742
2023-05-22T13:40:48.976Z,44.2542
2023-05-22T13:51:57.949Z,47.0768
2023-05-22T13:52:58.078Z,45.5069
2023-05-22T13:53:58.403Z,41.0953
2023-05-22T13:54:59.928Z,39.9624
2023-05-22T13:56:01.436Z,40.6516
2023-05-22T14:03:09.553Z,38.0482
2023-05-22T14:05:10.201Z,43.8694
2023-05-22T14:06:13.811Z,43.8502
2023-05-22T14:07:13.861Z,44.1083
2023-05-22T14:08:15.708Z,40.4270
2023-05-22T14:09:17.248Z,40.4048
2023-05-22T14:11:20.449Z,46.7880
2023-05-22T14:12:21.166Z,46.0035
2023-05-22T14:13:22.635Z,46.8103
2023-05-22T14:15:26.742Z,47.4851
2023-05-22T14:16:28.109Z,48.8712
2023-05-22T14:17:29.402Z,44.8586
2023-05-22T14:18:30.802Z,45.0707
2023-05-22T14:19:33.395Z,44.9155
2023-05-22T14:20:33.553Z,42.4187
2023-05-22T14:21:35.681Z,42.4503
2023-05-22T14:22:55.895Z,40.5978
2023-05-22T14:26:08.789Z,41.1082
2023-05-22T14:27:11.095Z,44.4512
2023-05-22T14:28:10.976Z,45.1462
2023-05-22T14:29:10.970Z,44.7501
2023-05-22T14:30:12.989Z,45.2115
2023-05-22T14:31:14.331Z,44.7658
2023-05-22T14:32:16.389Z,46.5085
2023-05-22T14:33:17.950Z,44.4305
2023-05-22T14:34:19.684Z,45.3977
2023-05-22T14:35:21.357Z,44.6356
2023-05-22T14:36:21.647Z,42.1466
2023-05-22T14:37:23.155Z,40.7401
2023-05-22T14:38:23.689Z,41.9580
2023-05-22T14:39:25.573Z,42.4588
2023-05-22T14:40:27.143Z,40.0520
2023-05-22T14:41:27.401Z,41.9974
2023-05-22T14:42:28.901Z,40.5794
2023-05-22T14:43:30.207Z,41.5155
2023-05-22T14:44:31.720Z,42.8889
2023-05-22T14:45:33.248Z,39.0093
2023-05-22T14:46:35.091Z,40.3480
2023-05-22T14:47:36.321Z,42.3729
2023-05-22T14:48:37.247Z,41.6565
2023-05-22T14:49:37.973Z,39.5207
2023-05-22T14:50:39.274Z,39.8527
2023-05-22T14:51:40.730Z,40.2139
2023-05-22T14:52:41.152Z,39.0459
2023-05-22T14:53:42.744Z,41.0920
2023-05-22T14:54:44.192Z,39.3422
2023-05-22T14:55:45.536Z,41.2367
2023-05-22T14:56:47.363Z,37.7800
2023-05-22T14:57:48.730Z,42.2805
2023-05-22T14:58:49.695Z,41.6644
2023-05-22T14:59:50.959Z,39.1281
2023-05-22T15:00:52.280Z,39.8657
2023-05-22T15:01:53.927Z,41.1316
2023-05-22T15:02:55.676Z,41.6625
2023-05-22T15:03:57.013Z,42.8440
2023-05-22T15:04:58.785Z,40.3855
2023-05-22T15:05:59.186Z,39.2699
2023-05-22T15:08:02.261Z,40.9487
2023-05-22T15:09:03.872Z,40.3546
2023-05-22T15:10:04.491Z,37.7116
2023-05-22T15:11:05.736Z,38.9158
2023-05-22T15:12:08.467Z,38.7242
2023-05-22T15:14:09.462Z,40.9742
2023-05-22T15:17:13.292Z,39.7918
2023-05-22T15:24:21.361Z,45.5112
2023-05-22T15:25:22.655Z,44.5871
2023-05-22T15:26:23.467Z,45.7729
2023-05-22T15:27:24.820Z,45.4204
2023-05-22T15:30:27.717Z,45.4103
2023-05-22T15:31:29.657Z,45.5890
2023-05-22T15:32:31.328Z,45.8406
2023-05-22T15:33:33.493Z,47.8472
2023-05-22T15:34:35.274Z,45.8511
2023-05-22T15:35:36.625Z,45.8783
2023-05-22T15:36:36.784Z,46.0847
2023-05-22T15:37:37.275Z,45.9764
2023-05-22T15:38:38.824Z,46.5973
2023-05-22T15:39:40.251Z,46.4991
2023-05-22T15:40:42.358Z,46.8125
2023-05-22T15:42:02.413Z,48.5382
2023-05-22T16:11:57.016Z,46.4390
2023-05-22T16:12:58.497Z,44.4922
2023-05-22T16:14:00.636Z,46.8783
2023-05-22T16:20:09.969Z,45.4842
2023-05-22T16:21:11.594Z,42.5576
2023-05-22T16:22:12.674Z,44.2967
2023-05-22T16:23:14.726Z,42.2725
2023-05-22T16:24:16.638Z,41.6297
2023-05-22T16:25:18.560Z,43.3169
2023-05-22T16:26:18.632Z,40.4577
2023-05-22T16:27:20.441Z,42.4027
2023-05-22T16:28:22.268Z,42.1488
2023-05-22T16:29:24.297Z,41.5695
2023-05-22T16:30:26.447Z,43.6718
2023-05-22T16:31:26.607Z,39.3809
2023-05-22T16:32:28.631Z,40.3304
2023-05-22T16:33:28.566Z,43.0199
2023-05-22T16:34:30.703Z,40.6444
2023-05-22T16:35:32.555Z,39.3849
2023-05-22T16:36:34.102Z,39.5828
2023-05-22T16:37:35.587Z,39.3764
2023-05-22T16:38:37.344Z,39.2294
2023-05-22T16:39:39.110Z,39.9598
2023-05-22T16:40:40.941Z,41.2275
2023-05-22T17:02:05.143Z,38.5278
2023-05-22T17:03:07.398Z,38.5454
2023-05-22T17:04:09.127Z,39.3255
2023-05-22T17:05:09.702Z,39.7675
2023-05-22T17:06:11.852Z,39.7262
2023-05-22T17:07:12.165Z,39.7300
2023-05-22T17:08:14.061Z,41.5015
2023-05-22T17:09:16.144Z,41.5976
2023-05-22T17:10:16.577Z,39.0790
2023-05-22T17:14:22.353Z,40.6884
2023-05-22T17:15:22.869Z,38.7652
2023-05-22T17:16:24.860Z,39.3273
2023-05-22T17:17:26.543Z,39.5588
2023-05-22T17:18:28.390Z,39.8218
2023-05-22T17:19:29.229Z,40.5682
2023-05-22T17:20:31.082Z,40.0958
2023-05-22T17:21:33.406Z,41.5936
2023-05-22T17:22:34.266Z,41.5390
2023-05-22T17:23:34.987Z,43.0614
2023-05-22T17:24:35.680Z,45.3784
2023-05-22T17:25:38.001Z,43.6329
2023-05-22T17:26:37.855Z,42.3481
2023-05-22T17:27:37.987Z,43.5950
2023-05-22T17:28:38.056Z,41.3441
2023-05-22T17:29:39.967Z,41.8923
2023-05-22T17:30:40.119Z,42.7480
2023-05-22T17:43:57.514Z,49.8555
2023-05-22T17:44:57.714Z,51.3248
2023-05-22T17:45:58.832Z,52.2430
2023-05-22T17:46:59.552Z,51.6268
2023-05-22T17:47:59.817Z,51.6955
2023-05-22T17:49:01.883Z,51.3298
2023-05-22T17:50:04.057Z,51.3251
2023-05-22T17:51:04.408Z,51.4176
2023-05-22T17:52:05.249Z,53.2017
2023-05-22T17:53:06.962Z,52.7469
2023-05-22T17:54:08.722Z,53.5160
2023-05-22T17:55:10.390Z,53.9665
2023-05-22T17:56:12.629Z,53.6834
2023-05-22T17:57:14.193Z,53.2859
2023-05-22T17:58:14.589Z,54.3299
2023-05-22T17:59:16.453Z,55.4123
2023-05-22T18:00:18.224Z,54.7257
2023-05-22T18:01:19.659Z,55.3234
2023-05-22T18:02:21.119Z,56.5106
2023-05-22T18:03:21.979Z,54.7602
2023-05-22T18:04:21.809Z,55.6818
2023-05-22T18:05:22.951Z,61.5516
2023-05-22T18:06:24.774Z,60.9998
2023-05-22T18:07:25.987Z,57.2251
2023-05-22T18:08:27.405Z,57.1926
2023-05-22T18:09:28.738Z,60.1643
2023-05-22T18:10:29.954Z,58.8074
2023-05-22T18:11:30.961Z,58.6679
2023-05-22T18:12:32.762Z,58.0441
2023-05-22T18:13:33.928Z,62.8275
2023-05-22T18:14:35.462Z,60.5148
2023-05-22T18:15:36.464Z,59.5122
2023-05-22T18:16:36.963Z,58.7980
2023-05-22T18:17:38.299Z,58.2959
2023-05-22T18:18:39.470Z,58.1626
2023-05-22T18:19:40.081Z,58.3711
2023-05-22T18:20:41.934Z,59.9188
2023-05-22T18:24:46.508Z,63.7439
2023-05-22T18:25:57.537Z,62.3851
2023-05-22T18:30:20.813Z,65.9310
2023-05-22T18:31:23.771Z,64.6272
2023-05-22T18:32:23.338Z,65.7533
2023-05-22T18:33:24.775Z,65.1723
2023-05-22T18:34:26.066Z,63.3685
2023-05-22T18:35:27.413Z,61.4975
2023-05-22T18:36:27.788Z,64.7660
2023-05-22T18:42:33.821Z,64.2926
2023-05-22T18:43:35.504Z,66.1001
2023-05-22T18:44:36.912Z,67.2218
2023-05-22T18:45:38.623Z,68.8137
2023-05-22T18:46:40.922Z,69.5050
2023-05-22T18:55:51.214Z,65.8550
2023-05-22T18:56:51.189Z,65.2758
2023-05-22T18:58:51.997Z,68.8610
2023-05-22T18:59:53.179Z,70.0985
2023-05-22T19:00:54.745Z,68.6458
2023-05-22T19:01:57.178Z,70.1351
2023-05-22T19:23:19.722Z,73.4117
2023-05-22T19:26:22.831Z,75.9787
2023-05-22T19:27:23.827Z,77.0248
2023-05-22T19:28:24.882Z,75.7768
2023-05-22T19:29:26.506Z,77.0603
2023-05-22T19:30:27.588Z,77.2876
2023-05-22T19:31:28.870Z,78.0776
2023-05-22T19:32:29.644Z,79.1562
2023-05-22T19:33:30.765Z,78.7450
2023-05-22T19:34:31.900Z,78.4189
2023-05-22T19:35:33.238Z,79.6494
2023-05-22T19:36:34.870Z,80.2319
2023-05-22T19:37:39.714Z,78.7052
2023-05-22T19:40:08.711Z,77.2400
2023-05-22T19:47:19.020Z,81.5841
2023-05-22T19:48:18.881Z,81.8079
2023-05-22T20:01:35.433Z,80.6934
2023-05-22T20:03:38.079Z,81.9886
2023-05-22T20:10:45.854Z,84.7596
2023-05-22T20:11:46.926Z,82.7447
2023-05-22T20:18:54.592Z,82.4692
2023-05-22T20:20:56.127Z,83.0413
2023-05-22T20:21:58.133Z,83.0177
2023-05-22T20:22:59.620Z,82.2353
2023-05-22T20:24:02.171Z,83.3653
2023-05-22T20:25:04.032Z,81.5145
2023-05-22T20:34:13.078Z,82.1218
2023-05-22T20:35:15.221Z,82.2043
2023-05-22T20:38:17.382Z,79.8255
2023-05-22T20:39:19.041Z,81.3705
2023-05-22T20:40:20.038Z,82.1356
2023-05-22T20:41:21.306Z,81.1284
2023-05-22T20:42:23.286Z,81.9912
2023-05-22T20:43:24.768Z,81.9482
2023-05-22T20:56:41.827Z,82.1943
2023-05-22T20:57:43.723Z,82.7380
2023-05-22T20:58:45.680Z,83.9825
2023-05-22T20:59:46.811Z,84.7112
2023-05-22T21:00:48.326Z,84.5229
2023-05-22T21:01:49.458Z,83.4747
2023-05-22T21:02:50.736Z,84.0105
2023-05-22T21:03:52.024Z,85.1890
2023-05-22T21:04:53.483Z,85.6935
2023-05-22T21:05:54.590Z,85.5016
2023-05-22T21:06:55.355Z,83.9314
2023-05-22T21:07:56.509Z,85.3257
2023-05-22T21:08:57.855Z,87.0022
2023-05-22T21:09:59.600Z,87.8033
2023-05-22T21:11:00.271Z,88.4907
2023-05-22T21:12:01.500Z,88.8761
2023-05-22T21:13:01.889Z,89.3850
2023-05-22T21:14:03.010Z,89.9871
2023-05-22T21:15:03.536Z,89.4972
2023-05-22T21:16:04.653Z,90.3856
2023-05-22T21:17:08.426Z,90.2480
2023-05-22T21:25:16.288Z,87.3416
2023-05-22T21:26:17.758Z,86.2680
2023-05-22T21:27:19.614Z,87.5190
2023-05-22T21:28:20.548Z,88.6650
2023-05-22T21:30:23.160Z,89.5978
2023-05-22T21:31:24.199Z,88.8211
2023-05-22T21:32:25.207Z,87.2686
2023-05-22T21:33:26.419Z,84.4686
2023-05-22T21:34:27.375Z,86.3332
2023-05-22T21:38:32.836Z,90.1619
2023-05-22T21:39:35.096Z,90.1024
2023-05-22T21:40:34.887Z,90.2323
2023-05-22T21:42:46.683Z,87.2571
2023-05-22T21:47:11.622Z,86.4376
2023-05-22T21:48:13.307Z,86.4392
2023-05-22T21:57:25.590Z,87.8039
2023-05-22T21:58:27.467Z,87.9926
2023-05-22T21:59:28.642Z,87.9451
2023-05-22T22:00:29.716Z,86.9162
2023-05-22T22:01:31.563Z,86.6428
2023-05-22T22:02:33.075Z,85.8913
2023-05-22T22:04:35.618Z,85.4777
2023-05-22T22:05:37.732Z,84.5950
2023-05-22T22:06:39.349Z,85.2463